Time;durP1;ratioP1;P1;durP2;ratioP2;P2;SDS_P1;SDS_P2;PMS_P1;PMS_P2;Temp;Humidity;BMP_temperature;BMP_pressure;BME280_temperature;BME280_humidity;BME280_pressure;Samples;Min_cycle;Max_cycle;Signal;HPM_P1;HPM_P2
2022/08/30 00:01:13;;;;;;;24.98;12.40;;;;;;;19.58;82.89;92898.38;5029701;28;20498;-75
2022/08/30 00:03:41;;;;;;;22.52;12.60;;;;;;;19.55;82.91;92897.16;5013237;28;20059;-74
2022/08/30 00:06:09;;;;;;;23.08;12.93;;;;;;;19.51;83.54;92907.66;5013609;28;20044;-74
2022/08/30 00:08:35;;;;;;;18.02;12.02;;;;;;;19.49;83.36;92907.22;5031326;28;20089;-74
2022/08/30 00:11:04;;;;;;;23.33;12.93;;;;;;;19.45;84.11;92908.22;5030488;28;20049;-74
2022/08/30 00:13:30;;;;;;;20.92;12.90;;;;;;;19.46;84.03;92910.53;5013763;28;20451;-74
2022/08/30 00:15:57;;;;;;;22.13;13.18;;;;;;;19.47;83.76;92916.63;5029502;28;20075;-74
2022/08/30 00:18:23;;;;;;;20.10;13.07;;;;;;;19.43;83.84;92915.72;5013703;28;20059;-74
2022/08/30 00:20:49;;;;;;;23.92;12.55;;;;;;;19.41;84.06;92916.06;5012851;28;20041;-74
2022/08/30 00:23:16;;;;;;;22.63;11.98;;;;;;;19.39;84.32;92907.66;5014559;28;20041;-75
2022/08/30 00:25:43;;;;;;;25.33;13.00;;;;;;;19.39;84.54;92902.34;5029616;28;20041;-75
2022/08/30 00:28:10;;;;;;;24.60;13.13;;;;;;;19.38;85.48;92894.72;5031181;28;20044;-75
2022/08/30 00:30:37;;;;;;;20.05;12.38;;;;;;;19.38;84.84;92890.16;5030421;28;20033;-75
2022/08/30 00:33:02;;;;;;;21.88;12.95;;;;;;;19.35;84.92;92886.31;5011989;28;20025;-75
2022/08/30 00:35:28;;;;;;;19.17;13.35;;;;;;;19.35;84.48;92886.31;5012064;28;20068;-75
2022/08/30 00:37:54;;;;;;;23.25;13.65;;;;;;;19.34;84.10;92883.97;5013462;28;20068;-74
2022/08/30 00:40:21;;;;;;;23.75;13.05;;;;;;;19.34;84.37;92883.97;5013452;28;20042;-75
2022/08/30 00:42:47;;;;;;;22.38;13.40;;;;;;;19.31;84.70;92885.41;5012772;28;20075;-75
2022/08/30 00:45:24;;;;;;;22.45;13.32;;;;;;;19.27;85.20;92878.44;5000384;28;20041;-75
2022/08/30 00:47:50;;;;;;;23.30;13.52;;;;;;;19.26;84.80;92882.97;5029929;28;20033;-75
2022/08/30 00:50:20;;;;;;;27.98;14.07;;;;;;;19.24;84.77;92882.53;5013097;28;20084;-75
2022/08/30 00:52:49;;;;;;;28.08;14.15;;;;;;;19.23;85.01;92878.34;5012919;28;20156;-75
2022/08/30 00:55:16;;;;;;;29.38;14.55;;;;;;;19.20;84.85;92881.63;5029721;28;20052;-75
2022/08/30 00:57:45;;;;;;;25.70;14.45;;;;;;;19.20;85.01;92888.81;5012110;28;20600;-74
2022/08/30 01:00:13;;;;;;;26.02;14.98;;;;;;;19.18;84.87;92891.03;5013182;28;20045;-75
2022/08/30 01:02:38;;;;;;;25.05;15.15;;;;;;;19.19;84.92;92903.22;5012113;28;20113;-75
2022/08/30 01:05:07;;;;;;;29.83;16.70;;;;;;;19.19;85.30;92898.69;5030507;28;20043;-74
2022/08/30 01:07:33;;;;;;;29.10;16.73;;;;;;;19.19;85.02;92908.53;5019695;28;20435;-74
2022/08/30 01:10:00;;;;;;;28.35;14.85;;;;;;;19.19;85.24;92903.22;4993259;28;20420;-74
2022/08/30 01:12:26;;;;;;;38.90;21.02;;;;;;;19.24;84.43;92906.41;4993505;28;20042;-74
2022/08/30 01:14:52;;;;;;;35.78;17.35;;;;;;;19.29;84.39;92914.16;5029567;28;20120;-74
2022/08/30 01:17:18;;;;;;;30.92;16.42;;;;;;;19.34;84.64;92916.63;5010961;28;20140;-75
2022/08/30 01:20:08;;;;;;;30.08;16.63;;;;;;;19.37;84.72;92909.88;5012857;28;20033;-75
2022/08/30 01:22:48;;;;;;;30.90;16.08;;;;;;;19.39;84.68;92917.50;5012600;28;20029;-74
2022/08/30 01:25:18;;;;;;;34.15;15.73;;;;;;;19.38;84.92;92916.72;5029224;28;20040;-75
2022/08/30 01:27:52;;;;;;;29.75;16.77;;;;;;;19.38;85.45;92913.28;5007557;28;20598;-75
2022/08/30 01:30:18;;;;;;;31.25;16.75;;;;;;;19.37;85.64;92912.53;5014330;28;20056;-74
2022/08/30 01:32:46;;;;;;;34.75;18.45;;;;;;;19.35;85.81;92907.53;5012734;28;20048;-74
2022/08/30 01:35:16;;;;;;;33.38;18.70;;;;;;;19.37;85.36;92909.09;5014246;28;20037;-74
2022/08/30 01:37:43;;;;;;;35.70;17.45;;;;;;;19.35;85.43;92912.09;4999189;28;20033;-74
2022/08/30 01:40:10;;;;;;;36.28;17.73;;;;;;;19.35;85.68;92912.84;5033860;28;20117;-75
2022/08/30 01:42:37;;;;;;;31.33;15.93;;;;;;;19.34;85.75;92910.50;5016274;28;20470;-74
2022/08/30 01:45:04;;;;;;;35.20;18.50;;;;;;;19.33;85.90;92906.31;5034033;28;20053;-75
2022/08/30 01:47:30;;;;;;;40.65;19.05;;;;;;;19.30;85.84;92897.16;5015594;28;20116;-74
2022/08/30 01:49:57;;;;;;;34.15;20.35;;;;;;;19.28;85.81;92896.69;5020118;28;20398;-75
2022/08/30 01:52:23;;;;;;;39.92;19.70;;;;;;;19.26;86.15;92900.78;5014183;28;20030;-75
2022/08/30 01:54:49;;;;;;;35.50;18.85;;;;;;;19.22;86.36;92895.34;4980331;28;20061;-75
2022/08/30 01:57:19;;;;;;;40.60;18.25;;;;;;;19.22;86.31;92899.88;4997384;28;20482;-75
2022/08/30 01:59:46;;;;;;;45.28;20.65;;;;;;;19.17;86.41;92892.91;5007473;28;20483;-75
2022/08/30 02:02:14;;;;;;;43.15;22.50;;;;;;;19.16;86.23;92898.53;5008062;28;20092;-74
2022/08/30 02:04:41;;;;;;;47.33;22.75;;;;;;;19.12;86.96;92895.78;5033666;28;20028;-75
2022/08/30 02:07:07;;;;;;;44.88;22.83;;;;;;;19.08;86.95;92895.66;5032430;28;20041;-75
2022/08/30 02:09:33;;;;;;;40.47;20.83;;;;;;;19.05;87.12;92891.03;5029432;28;20052;-74
2022/08/30 02:11:58;;;;;;;45.92;21.25;;;;;;;19.01;87.60;92884.81;4996081;28;20057;-75
2022/08/30 02:14:24;;;;;;;38.17;21.10;;;;;;;19.00;87.58;92879.84;5013334;28;20053;-74
2022/08/30 02:16:50;;;;;;;39.08;20.80;;;;;;;18.96;87.62;92876.28;5013582;28;20534;-74
2022/08/30 02:19:16;;;;;;;44.00;21.65;;;;;;;18.95;87.25;92872.88;5028718;28;20033;-74
2022/08/30 02:21:42;;;;;;;42.53;22.35;;;;;;;18.92;87.69;92871.66;5015714;28;20037;-74
2022/08/30 02:24:08;;;;;;;45.50;21.45;;;;;;;18.89;88.11;92874.16;5013209;28;20555;-75
2022/08/30 02:26:35;;;;;;;47.35;21.02;;;;;;;18.86;87.95;92875.59;5018572;28;20021;-75
2022/08/30 02:29:04;;;;;;;40.72;22.10;;;;;;;18.85;87.94;92868.00;5015994;28;20507;-75
2022/08/30 02:31:29;;;;;;;45.47;22.98;;;;;;;18.84;88.13;92877.81;5004098;28;20045;-75
2022/08/30 02:33:55;;;;;;;50.40;23.05;;;;;;;18.84;88.14;92877.81;4996051;28;20547;-74
2022/08/30 02:36:21;;;;;;;40.30;21.38;;;;;;;18.86;87.72;92880.13;5013385;28;20379;-74
2022/08/30 02:38:48;;;;;;;53.97;21.30;;;;;;;18.86;87.58;92872.19;4999461;28;20379;-74
2022/08/30 02:41:14;;;;;;;47.97;22.60;;;;;;;18.85;88.16;92871.41;5013578;28;20103;-74
2022/08/30 02:43:40;;;;;;;37.67;20.80;;;;;;;18.82;88.78;92869.41;5031482;28;20061;-74
2022/08/30 02:46:05;;;;;;;37.65;19.70;;;;;;;18.79;88.51;92875.38;5028816;28;20033;-74
2022/08/30 02:48:31;;;;;;;32.33;17.25;;;;;;;18.75;88.75;92882.38;5014957;28;20045;-74
2022/08/30 02:51:05;;;;;;;41.10;18.30;;;;;;;18.74;88.55;92883.50;5013528;28;20546;-74
2022/08/30 02:53:31;;;;;;;36.08;16.90;;;;;;;18.75;88.34;92879.75;5014553;28;20112;-74
2022/08/30 02:55:57;;;;;;;36.20;17.88;;;;;;;18.74;88.65;92872.91;4998632;28;20128;-74
2022/08/30 02:58:23;;;;;;;34.47;18.27;;;;;;;18.76;88.13;92860.09;5032577;28;20080;-75
2022/08/30 03:00:49;;;;;;;34.30;17.40;;;;;;;18.77;87.73;92861.66;5014579;28;20525;-74
2022/08/30 03:03:14;;;;;;;34.65;19.05;;;;;;;18.78;87.97;92854.47;5017768;28;20042;-75
2022/08/30 03:05:40;;;;;;;31.80;18.00;;;;;;;18.79;88.13;92862.09;5011558;28;20091;-75
2022/08/30 03:08:07;;;;;;;36.03;17.90;;;;;;;18.78;89.23;92855.28;5032612;28;20060;-74
2022/08/30 03:10:32;;;;;;;33.55;17.27;;;;;;;18.79;89.22;92853.38;5037104;28;20057;-74
2022/08/30 03:12:58;;;;;;;39.60;19.60;;;;;;;18.79;89.37;92856.81;5024087;28;20032;-74
2022/08/30 03:15:24;;;;;;;38.20;18.20;;;;;;;18.77;88.95;92851.06;5030853;28;20025;-74
2022/08/30 03:17:51;;;;;;;33.67;18.95;;;;;;;18.77;89.17;92850.25;5031843;28;20048;-74
2022/08/30 03:20:18;;;;;;;40.92;19.45;;;;;;;18.75;88.88;92853.22;5013552;28;20066;-75
2022/08/30 03:22:43;;;;;;;34.20;19.40;;;;;;;18.75;88.91;92850.56;5012529;28;20125;-74
2022/08/30 03:25:09;;;;;;;33.92;17.10;;;;;;;18.75;88.05;92849.81;4994898;28;20041;-75
2022/08/30 03:27:35;;;;;;;36.83;18.88;;;;;;;18.76;88.33;92859.31;5012233;28;20357;-75
2022/08/30 03:30:01;;;;;;;46.22;21.92;;;;;;;18.81;88.73;92851.19;4985242;28;20029;-74
2022/08/30 03:32:26;;;;;;;36.00;21.00;;;;;;;18.87;87.71;92869.22;5024189;28;20038;-75
2022/08/30 03:34:52;;;;;;;40.78;20.42;;;;;;;19.00;87.71;92853.31;4996318;28;20052;-74
2022/08/30 03:37:18;;;;;;;43.17;20.70;;;;;;;18.93;88.18;92859.91;4994568;28;20030;-74
2022/08/30 03:39:45;;;;;;;35.40;20.10;;;;;;;18.89;88.50;92852.94;5004466;28;20514;-74
2022/08/30 03:42:10;;;;;;;42.60;19.15;;;;;;;18.86;89.29;92857.03;5013308;28;20499;-74
2022/08/30 03:44:36;;;;;;;38.63;19.98;;;;;;;18.82;89.40;92858.78;5002169;28;20333;-74
2022/08/30 03:47:03;;;;;;;38.85;19.90;;;;;;;18.81;89.67;92859.13;4994427;28;20041;-75
2022/08/30 03:49:30;;;;;;;36.95;18.73;;;;;;;18.79;89.52;92864.75;5011866;28;20059;-74
2022/08/30 03:51:56;;;;;;;33.75;19.60;;;;;;;18.75;90.00;92860.41;5013874;28;20026;-74
2022/08/30 03:54:21;;;;;;;43.58;18.65;;;;;;;18.73;90.03;92872.13;5006882;28;20045;-75
2022/08/30 03:56:47;;;;;;;38.65;20.23;;;;;;;18.72;89.82;92865.25;5030422;28;20083;-74
2022/08/30 03:59:13;;;;;;;31.42;19.27;;;;;;;18.71;90.08;92876.19;5013760;28;20025;-74
2022/08/30 04:01:40;;;;;;;41.50;21.15;;;;;;;18.70;90.18;92874.66;5031340;28;20033;-74
2022/08/30 04:04:07;;;;;;;38.53;21.40;;;;;;;18.70;90.68;92872.00;4979916;28;20529;-74
2022/08/30 04:06:33;;;;;;;38.80;19.60;;;;;;;18.68;91.00;92868.91;5031454;28;20036;-74
2022/08/30 04:08:58;;;;;;;38.78;19.25;;;;;;;18.64;90.89;92879.41;5031126;28;20068;-74
2022/08/30 04:11:24;;;;;;;38.33;20.58;;;;;;;18.60;91.08;92883.00;5013308;28;20131;-75
2022/08/30 04:13:50;;;;;;;44.10;19.63;;;;;;;18.56;91.19;92887.44;5013453;28;20037;-74
2022/08/30 04:16:18;;;;;;;36.75;19.27;;;;;;;18.52;91.01;92893.34;4998704;28;20454;-74
2022/08/30 04:18:44;;;;;;;37.80;21.58;;;;;;;18.54;90.86;92889.63;5014242;28;20037;-74
2022/08/30 04:21:09;;;;;;;40.47;20.58;;;;;;;18.54;90.60;92889.63;5012273;28;20033;-75
2022/08/30 04:23:35;;;;;;;40.58;21.10;;;;;;;18.52;90.94;92887.28;4997697;28;20068;-75
2022/08/30 04:26:00;;;;;;;44.88;21.63;;;;;;;18.50;90.81;92890.25;5009598;28;20107;-74
2022/08/30 04:28:27;;;;;;;38.17;19.45;;;;;;;18.50;90.68;92894.78;5013477;28;20116;-76
2022/08/30 04:30:52;;;;;;;39.55;20.42;;;;;;;18.49;91.35;92894.03;5018072;28;20030;-74
2022/08/30 04:33:18;;;;;;;37.42;20.85;;;;;;;18.46;91.68;92897.31;5014810;28;20025;-74
2022/08/30 04:35:46;;;;;;;42.00;21.92;;;;;;;18.46;91.66;92904.47;5021667;28;20064;-75
2022/08/30 04:38:12;;;;;;;47.03;21.25;;;;;;;18.44;92.03;92899.53;5030826;28;20568;-74
2022/08/30 04:40:44;;;;;;;64.25;21.08;;;;;;;18.43;92.06;92905.91;5029006;28;20432;-75
2022/08/30 04:43:11;;;;;;;42.65;20.35;;;;;;;18.41;91.68;92910.75;5022973;28;20495;-74
2022/08/30 04:45:41;;;;;;;37.55;20.35;;;;;;;18.42;91.46;92908.91;5017263;28;20053;-74
2022/08/30 04:48:07;;;;;;;39.17;21.75;;;;;;;18.42;92.30;92914.97;5013604;28;20048;-73
2022/08/30 04:50:33;;;;;;;43.70;21.95;;;;;;;18.42;92.00;92914.19;5030057;28;20630;-75
2022/08/30 04:52:58;;;;;;;57.88;21.02;;;;;;;18.41;92.52;92917.94;5024233;28;20079;-75
2022/08/30 04:55:25;;;;;;;48.25;22.05;;;;;;;18.40;92.97;92925.13;5023472;28;20083;-75
2022/08/30 04:57:51;;;;;;;44.80;24.13;;;;;;;18.41;93.49;92920.59;5018256;28;20509;-74
2022/08/30 05:00:21;;;;;;;46.10;23.77;;;;;;;18.44;93.67;92922.59;5027539;28;20033;-74
2022/08/30 05:03:08;;;;;;;47.25;23.38;;;;;;;18.46;93.18;92923.03;5029884;28;20389;-75
2022/08/30 05:05:40;;;;;;;50.88;22.92;;;;;;;18.50;93.12;92921.28;5031101;28;20124;-75
2022/08/30 05:08:11;;;;;;;47.60;22.90;;;;;;;18.56;93.30;92937.78;4982369;28;20034;-75
2022/08/30 05:10:46;;;;;;;40.58;21.83;;;;;;;18.61;93.10;92932.28;5015690;28;20514;-74
2022/08/30 05:13:13;;;;;;;47.30;24.38;;;;;;;18.68;93.44;92932.53;5034915;28;20116;-74
2022/08/30 05:15:39;;;;;;;51.58;23.50;;;;;;;18.73;92.86;92937.63;5016921;28;20033;-73
2022/08/30 05:18:06;;;;;;;42.67;22.02;;;;;;;18.80;93.32;92939.78;5034332;28;20038;-74
2022/08/30 05:20:33;;;;;;;46.90;21.38;;;;;;;18.83;93.02;92942.56;5034588;28;20499;-76
2022/08/30 05:23:00;;;;;;;45.17;20.48;;;;;;;18.87;92.38;92940.81;5037929;28;20035;-75
2022/08/30 05:25:28;;;;;;;44.40;20.83;;;;;;;18.91;92.66;92947.03;5028706;28;20043;-75
2022/08/30 05:27:54;;;;;;;40.55;20.10;;;;;;;18.96;91.97;92953.22;5016872;28;20044;-75
2022/08/30 05:30:21;;;;;;;47.15;21.05;;;;;;;18.97;91.12;92952.13;5032901;28;20483;-75
2022/08/30 05:32:46;;;;;;;43.70;19.83;;;;;;;18.97;92.44;92952.13;5017661;28;20475;-75
2022/08/30 05:35:14;;;;;;;36.92;20.95;;;;;;;18.98;92.21;92954.47;4995439;28;20052;-75
2022/08/30 05:37:40;;;;;;;37.53;21.20;;;;;;;18.99;92.40;92958.66;5032213;28;20029;-75
2022/08/30 05:40:07;;;;;;;33.45;18.77;;;;;;;18.99;92.69;92961.31;5011146;28;20048;-74
2022/08/30 05:42:34;;;;;;;40.78;19.88;;;;;;;19.00;93.25;92956.78;5031249;28;20029;-74
2022/08/30 05:45:01;;;;;;;34.78;20.65;;;;;;;19.01;92.90;92956.44;5013645;28;20423;-75
2022/08/30 05:47:27;;;;;;;38.67;20.15;;;;;;;19.03;92.94;92953.47;5031291;28;20678;-74
2022/08/30 05:49:53;;;;;;;37.35;19.52;;;;;;;19.04;93.39;92949.72;5013637;28;20052;-75
2022/08/30 05:52:19;;;;;;;39.25;19.48;;;;;;;19.05;93.29;92957.34;5030331;28;20390;-74
2022/08/30 05:54:45;;;;;;;44.30;21.05;;;;;;;19.08;92.72;92947.97;5031158;28;20041;-75
2022/08/30 05:57:11;;;;;;;44.20;20.10;;;;;;;19.06;92.73;92948.28;5015310;28;20369;-74
2022/08/30 05:59:36;;;;;;;36.75;19.73;;;;;;;19.05;93.29;92957.34;5032251;28;20052;-75
2022/08/30 06:02:02;;;;;;;38.03;19.58;;;;;;;19.03;93.07;92943.63;5015656;28;20041;-74
2022/08/30 06:04:28;;;;;;;39.60;19.63;;;;;;;19.03;94.02;92953.47;5015895;28;20039;-74
2022/08/30 06:06:54;;;;;;;40.03;20.48;;;;;;;19.01;94.04;92950.38;5031832;28;20120;-74
2022/08/30 06:09:20;;;;;;;44.60;20.23;;;;;;;18.99;94.09;92955.22;5033335;28;20151;-74
2022/08/30 06:11:46;;;;;;;41.40;22.00;;;;;;;18.96;94.58;92959.31;5032956;28;20048;-75
2022/08/30 06:14:13;;;;;;;41.28;20.55;;;;;;;18.93;95.14;92954.66;4999289;28;20041;-75
2022/08/30 06:16:39;;;;;;;41.45;21.67;;;;;;;18.92;95.42;92953.88;5015058;28;20041;-75
2022/08/30 06:19:07;;;;;;;45.30;22.40;;;;;;;18.95;95.21;92962.28;5031918;28;20021;-75
2022/08/30 06:21:35;;;;;;;52.53;24.08;;;;;;;18.97;94.81;92954.78;5031911;28;20487;-75
2022/08/30 06:24:04;;;;;;;50.63;22.55;;;;;;;19.00;94.96;92956.78;5031530;28;20120;-75
2022/08/30 06:26:30;;;;;;;52.17;23.23;;;;;;;19.06;96.06;92958.13;5032908;28;20399;-74
2022/08/30 06:28:57;;;;;;;49.65;24.25;;;;;;;19.12;95.30;92954.16;4995818;28;20045;-75
2022/08/30 06:31:24;;;;;;;42.17;21.95;;;;;;;19.20;94.84;92958.59;5006932;28;20034;-74
2022/08/30 06:33:51;;;;;;;52.97;23.20;;;;;;;19.26;94.35;92951.22;5006389;28;20507;-75
2022/08/30 06:36:22;;;;;;;53.53;23.55;;;;;;;19.39;93.84;92952.03;5032948;28;20072;-74
2022/08/30 06:38:54;;;;;;;54.88;23.50;;;;;;;19.59;93.24;92947.72;5032936;28;20033;-75
2022/08/30 06:41:22;;;;;;;49.28;23.42;;;;;;;20.36;91.12;92953.91;5031804;28;20211;-75
2022/08/30 06:43:49;;;;;;;51.45;22.52;;;;;;;21.05;87.02;92945.19;5032698;28;20026;-75
2022/08/30 06:46:18;;;;;;;47.90;20.88;;;;;;;21.92;80.16;92947.00;5023271;28;20038;-75
2022/08/30 06:48:44;;;;;;;38.28;19.50;;;;;;;22.58;76.46;92937.41;5021324;28;20029;-75
2022/08/30 06:51:10;;;;;;;36.47;18.55;;;;;;;23.41;76.52;92934.41;4995405;28;20395;-75
2022/08/30 06:53:35;;;;;;;43.53;22.98;;;;;;;24.22;69.99;92946.03;5011470;28;20018;-75
2022/08/30 06:56:06;;;;;;;52.53;26.73;;;;;;;25.04;64.08;92940.97;4995306;28;20065;-75
2022/08/30 06:58:33;;;;;;;45.05;23.50;;;;;;;25.41;61.45;92943.69;5006394;28;20026;-75
2022/08/30 07:00:58;;;;;;;23.42;13.63;;;;;;;25.36;62.49;92941.38;5032451;28;20491;-75
2022/08/30 07:03:27;;;;;;;20.85;13.43;;;;;;;24.65;65.37;92939.38;4998048;28;20044;-75
2022/08/30 07:05:54;;;;;;;26.58;13.27;;;;;;;23.99;67.55;92936.16;5006777;28;20471;-75
2022/08/30 07:08:21;;;;;;;23.15;11.93;;;;;;;23.86;68.23;92943.59;5009869;28;20038;-75
2022/08/30 07:10:48;;;;;;;26.08;13.43;;;;;;;23.75;69.02;92939.97;5012526;28;20523;-75
2022/08/30 07:13:14;;;;;;;23.52;13.15;;;;;;;23.54;69.08;92935.03;5009496;28;20040;-75
2022/08/30 07:15:42;;;;;;;23.00;13.20;;;;;;;23.65;67.93;92943.22;5032416;28;20037;-75
2022/08/30 07:20:52;;;;;;;21.38;12.27;;;;;;;22.73;74.77;92949.16;5009777;28;20040;-74
2022/08/30 07:23:18;;;;;;;21.83;13.32;;;;;;;22.34;76.17;92940.34;5012208;28;20022;-75
2022/08/30 07:25:43;;;;;;;24.08;13.23;;;;;;;22.52;77.08;92948.72;4994746;28;20116;-75
2022/08/30 07:28:10;;;;;;;21.65;12.43;;;;;;;22.67;74.44;92945.19;5012144;28;20041;-75
2022/08/30 07:30:36;;;;;;;18.95;12.45;;;;;;;22.55;76.37;92946.13;5012164;28;20494;-75
2022/08/30 07:33:02;;;;;;;24.42;12.23;;;;;;;22.04;78.85;92946.13;5006766;28;20153;-75
2022/08/30 07:35:28;;;;;;;25.63;14.05;;;;;;;21.68;81.12;92957.84;5013990;28;20069;-74
2022/08/30 07:37:53;;;;;;;30.88;14.75;;;;;;;21.55;82.13;92951.84;5014026;28;20130;-75
2022/08/30 07:40:19;;;;;;;28.30;13.55;;;;;;;21.65;82.13;92955.88;5014307;28;20406;-74
2022/08/30 07:42:45;;;;;;;20.60;13.02;;;;;;;22.07;78.81;92955.34;5013671;28;20033;-75
2022/08/30 07:45:11;;;;;;;19.85;11.52;;;;;;;22.26;75.58;92946.63;5031636;28;20083;-74
2022/08/30 07:47:37;;;;;;;23.70;12.38;;;;;;;22.42;77.63;92950.78;5030366;28;20048;-75
2022/08/30 07:50:05;;;;;;;20.75;12.70;;;;;;;22.50;77.18;92940.28;5030130;28;20529;-75
2022/08/30 07:52:31;;;;;;;22.42;12.48;;;;;;;22.43;76.34;92949.69;5013904;28;20029;-75
2022/08/30 07:54:57;;;;;;;23.13;11.65;;;;;;;22.40;77.25;92950.41;5030145;28;20044;-75
2022/08/30 07:57:23;;;;;;;16.90;10.73;;;;;;;22.16;77.43;92946.03;5030092;28;20049;-75
2022/08/30 07:59:50;;;;;;;23.13;11.68;;;;;;;22.06;78.48;92949.22;5031416;28;20051;-75
2022/08/30 08:02:16;;;;;;;17.35;11.07;;;;;;;21.88;78.86;92953.38;5031347;28;20064;-75
2022/08/30 08:04:42;;;;;;;17.08;9.60;;;;;;;21.91;75.27;92964.13;5029946;28;20083;-75
2022/08/30 08:07:08;;;;;;;15.30;9.02;;;;;;;22.03;70.15;92949.91;5025739;28;20026;-75
2022/08/30 08:09:34;;;;;;;13.98;8.77;;;;;;;22.40;70.14;92942.38;5026958;28;20447;-75
2022/08/30 08:12:02;;;;;;;14.18;8.93;;;;;;;22.93;69.72;92941.91;5011319;28;20053;-76
2022/08/30 08:14:28;;;;;;;18.67;9.45;;;;;;;23.34;67.16;92939.63;5013435;28;20116;-74
2022/08/30 08:16:53;;;;;;;20.42;9.48;;;;;;;23.95;65.29;92935.31;5031030;28;20120;-75
2022/08/30 08:19:19;;;;;;;15.63;8.25;;;;;;;24.18;59.33;92935.28;5013663;28;20033;-74
2022/08/30 08:21:45;;;;;;;14.10;8.95;;;;;;;23.94;66.73;92935.69;5013464;28;20029;-74
2022/08/30 08:24:10;;;;;;;18.30;9.43;;;;;;;23.67;67.06;92930.28;5031129;28;20049;-75
2022/08/30 08:26:37;;;;;;;15.85;8.73;;;;;;;22.98;68.92;92930.94;5013579;28;20438;-75
2022/08/30 08:29:05;;;;;;;21.63;9.65;;;;;;;22.59;70.75;92930.97;5031019;28;20044;-74
2022/08/30 08:31:31;;;;;;;19.30;9.60;;;;;;;22.46;71.49;92937.53;5013317;28;20147;-74
2022/08/30 08:33:58;;;;;;;17.45;9.90;;;;;;;22.41;71.62;92938.59;5029912;28;20053;-74
2022/08/30 08:36:25;;;;;;;18.90;9.85;;;;;;;22.40;72.48;92945.06;5030669;28;20045;-75
2022/08/30 08:38:51;;;;;;;18.75;9.80;;;;;;;22.53;72.20;92955.59;5013166;28;20396;-75
2022/08/30 08:41:20;;;;;;;15.13;8.98;;;;;;;22.80;71.52;92956.53;5013225;28;20041;-75
2022/08/30 08:43:45;;;;;;;14.60;8.73;;;;;;;23.28;69.51;92957.88;5013283;28;20644;-75
2022/08/30 08:46:26;;;;;;;14.35;9.32;;;;;;;22.99;70.85;92953.91;5033716;28;20041;-75
2022/08/30 08:48:56;;;;;;;22.60;10.23;;;;;;;22.66;71.65;92957.00;5017301;28;20038;-75
2022/08/30 08:54:23;;;;;;;15.82;9.50;;;;;;;23.30;68.94;92965.50;4976937;28;20487;-75
2022/08/30 08:56:49;;;;;;;19.55;10.45;;;;;;;23.36;68.66;92974.78;5015015;28;20402;-75
2022/08/30 08:59:15;;;;;;;15.00;7.72;;;;;;;23.47;68.97;92980.31;5014349;28;20152;-75
2022/08/30 09:01:41;;;;;;;21.55;11.77;;;;;;;23.05;69.06;92979.16;5017072;28;20510;-75
2022/08/30 09:04:14;;;;;;;24.25;14.02;;;;;;;22.65;69.92;92982.94;5034671;28;20037;-75
2022/08/30 09:06:57;;;;;;;34.35;13.65;;;;;;;22.53;72.36;92983.03;5017204;28;20542;-75
2022/08/30 09:09:28;;;;;;;17.23;11.68;;;;;;;22.56;72.40;92977.03;5017085;28;20037;-75
2022/08/30 09:11:54;;;;;;;16.45;10.00;;;;;;;22.72;72.74;92984.19;5016226;28;20402;-74
2022/08/30 09:14:37;;;;;;;19.08;11.45;;;;;;;22.84;72.72;92992.06;5000210;28;20025;-75
2022/08/30 09:17:11;;;;;;;18.52;11.80;;;;;;;22.72;72.08;92984.19;5016303;28;20033;-75
2022/08/30 09:19:41;;;;;;;15.85;10.55;;;;;;;22.74;73.46;92988.06;5033048;28;20036;-74
2022/08/30 09:22:53;;;;;;;18.17;10.95;;;;;;;22.55;73.64;92988.78;5016671;28;20035;-75
2022/08/30 09:25:24;;;;;;;17.92;10.73;;;;;;;22.33;74.80;92994.78;4999578;28;20060;-75
2022/08/30 09:27:52;;;;;;;18.88;11.93;;;;;;;22.45;74.37;92987.44;5046961;28;20091;-75
2022/08/30 09:30:22;;;;;;;17.70;10.73;;;;;;;22.63;75.88;93000.41;5025920;28;20065;-75
2022/08/30 09:32:54;;;;;;;17.60;11.90;;;;;;;22.80;74.19;92993.88;5016360;28;20031;-75
2022/08/30 09:35:23;;;;;;;21.17;13.43;;;;;;;22.65;73.78;92990.13;5019663;28;20040;-75
2022/08/30 09:38:04;;;;;;;21.98;11.95;;;;;;;22.68;74.32;92999.38;5025896;28;20045;-75
2022/08/30 09:40:41;;;;;;;19.42;12.55;;;;;;;22.86;72.83;93000.50;5034023;28;20047;-75
2022/08/30 09:43:28;;;;;;;18.80;12.13;;;;;;;22.87;72.48;93004.69;5033753;28;20495;-75
2022/08/30 09:45:57;;;;;;;17.20;11.63;;;;;;;22.85;72.09;93004.28;5036191;28;20037;-74
2022/08/30 09:48:25;;;;;;;20.80;11.90;;;;;;;22.84;71.26;92997.41;5033632;28;20091;-75
2022/08/30 09:51:16;;;;;;;18.02;9.77;;;;;;;22.84;72.60;93000.06;5035186;28;20477;-75
2022/08/30 09:53:50;;;;;;;20.27;11.10;;;;;;;22.79;72.28;92995.03;5023222;28;20438;-75
2022/08/30 09:56:50;;;;;;;19.73;14.07;;;;;;;22.66;72.53;92987.13;5015899;28;20041;-75
2022/08/30 09:59:18;;;;;;;18.48;12.68;;;;;;;22.51;73.82;92990.59;5034440;28;20057;-75
2022/08/30 10:02:00;;;;;;;22.35;12.80;;;;;;;22.49;74.87;92987.50;5035240;28;20044;-75
2022/08/30 10:04:37;;;;;;;25.70;14.63;;;;;;;22.51;74.62;92984.50;5033344;28;20037;-75
2022/08/30 10:07:12;;;;;;;28.48;14.27;;;;;;;22.52;74.80;92986.06;5033565;28;20279;-74
2022/08/30 10:09:54;;;;;;;21.88;13.70;;;;;;;22.47;75.58;92995.09;5026217;28;20029;-77
2022/08/30 10:12:43;;;;;;;20.33;13.60;;;;;;;22.48;75.57;92993.22;5029484;28;20557;-74
2022/08/30 10:15:23;;;;;;;23.08;13.68;;;;;;;22.19;77.42;93001.31;5004512;28;20037;-75
2022/08/30 10:17:54;;;;;;;23.35;13.85;;;;;;;22.21;78.15;93003.63;5016147;28;20453;-76
2022/08/30 10:20:37;;;;;;;22.73;15.95;;;;;;;21.98;78.76;92995.50;4999346;28;20041;-76
2022/08/30 10:23:06;;;;;;;24.92;16.08;;;;;;;21.90;79.87;92985.78;5015573;28;20038;-75
2022/08/30 10:25:40;;;;;;;27.50;18.02;;;;;;;22.05;78.86;92982.31;5033319;28;20100;-75
2022/08/30 10:28:17;;;;;;;28.00;17.63;;;;;;;21.98;78.57;92979.50;5033017;28;20034;-75
2022/08/30 10:30:48;;;;;;;29.23;17.52;;;;;;;22.07;78.42;92982.75;5016341;28;20041;-75
2022/08/30 10:33:21;;;;;;;23.97;16.73;;;;;;;22.07;78.37;92977.44;5015695;28;20033;-76
2022/08/30 10:35:52;;;;;;;30.63;17.33;;;;;;;22.17;78.58;92976.13;5015523;28;20911;-75
2022/08/30 10:38:29;;;;;;;28.42;16.95;;;;;;;22.34;78.10;92973.13;5015202;28;20548;-76
2022/08/30 10:41:14;;;;;;;29.73;17.02;;;;;;;22.36;78.14;92978.06;5015245;28;20043;-76
2022/08/30 10:43:55;;;;;;;28.20;16.13;;;;;;;22.38;78.25;92981.16;5032777;28;20032;-75
2022/08/30 10:46:28;;;;;;;29.00;17.02;;;;;;;22.51;77.43;92987.19;5030332;28;20083;-75
2022/08/30 10:48:57;;;;;;;26.45;16.88;;;;;;;22.43;78.70;92991.59;5028297;28;20410;-75
2022/08/30 10:51:43;;;;;;;28.02;16.40;;;;;;;22.62;77.47;92996.19;5011779;28;20132;-75
2022/08/30 10:54:09;;;;;;;23.60;15.70;;;;;;;22.76;76.21;92985.78;5028336;28;20033;-75
2022/08/30 10:56:39;;;;;;;24.55;15.68;;;;;;;22.88;75.41;92984.91;5012843;28;20423;-75
2022/08/30 10:59:05;;;;;;;21.50;14.18;;;;;;;22.99;75.30;92983.25;5011679;28;20049;-75
2022/08/30 11:02:00;;;;;;;18.27;13.85;;;;;;;23.34;75.48;92976.28;5031250;28;20399;-75
2022/08/30 11:04:59;;;;;;;21.73;12.68;;;;;;;23.56;74.28;92975.53;5032354;28;20030;-75
2022/08/30 11:07:43;;;;;;;21.38;14.77;;;;;;;23.55;72.57;92978.53;5031760;28;20353;-75
2022/08/30 11:10:26;;;;;;;19.45;13.77;;;;;;;23.51;73.20;92980.38;5031049;28;20402;-75
2022/08/30 11:12:57;;;;;;;21.75;15.20;;;;;;;23.28;73.88;92973.91;5014738;28;20034;-75
2022/08/30 11:15:26;;;;;;;25.15;16.98;;;;;;;23.27;73.61;92976.91;5032050;28;20103;-75
2022/08/30 11:18:03;;;;;;;23.65;15.73;;;;;;;23.42;73.30;92972.59;5014247;28;20044;-75
2022/08/30 11:20:35;;;;;;;20.13;13.77;;;;;;;23.44;73.83;92970.34;5014647;28;20066;-75
2022/08/30 11:23:29;;;;;;;23.20;15.65;;;;;;;23.56;73.07;92961.41;5014354;28;20039;-76
2022/08/30 11:26:01;;;;;;;21.30;14.02;;;;;;;23.78;73.00;92947.28;5014405;28;20064;-75
2022/08/30 11:28:36;;;;;;;23.17;13.27;;;;;;;23.97;72.61;92945.66;5031976;28;20041;-75
2022/08/30 11:31:26;;;;;;;19.05;13.23;;;;;;;24.20;72.14;92940.28;5031708;28;20025;-76